createdAt,value
2024-03-25T00:00:41.000Z,97384
2024-03-25T00:03:27.000Z,97380
2024-03-25T00:04:53.000Z,97378
2024-03-25T00:06:59.000Z,97379
2024-03-25T00:08:26.000Z,97376
2024-03-25T00:10:33.000Z,97375
2024-03-25T00:11:59.000Z,97377
2024-03-25T00:14:05.000Z,97385
2024-03-25T00:15:32.000Z,97383
2024-03-25T00:17:38.000Z,97382
2024-03-25T00:19:05.000Z,97384
2024-03-25T00:21:11.000Z,97385
2024-03-25T00:22:38.000Z,97385
2024-03-25T00:24:44.000Z,97390
2024-03-25T00:26:10.000Z,97381
2024-03-25T00:28:17.000Z,97384
2024-03-25T00:29:44.000Z,97384
2024-03-25T00:31:50.000Z,97386
2024-03-25T00:33:16.000Z,97384
2024-03-25T00:35:23.000Z,97383
2024-03-25T00:36:49.000Z,97390
2024-03-25T00:38:56.000Z,97389
2024-03-25T00:41:41.000Z,97389
2024-03-25T00:43:07.000Z,97388
2024-03-25T00:45:13.000Z,97387
2024-03-25T00:46:40.000Z,97383
2024-03-25T00:48:46.000Z,97394
2024-03-25T00:50:13.000Z,97385
2024-03-25T00:52:19.000Z,97389
2024-03-25T00:53:46.000Z,97392
2024-03-25T00:55:52.000Z,97385
2024-03-25T00:57:19.000Z,97381
2024-03-25T00:59:25.000Z,97384
2024-03-25T01:00:51.000Z,97386
2024-03-25T01:02:58.000Z,97387
2024-03-25T01:04:24.000Z,97387
2024-03-25T01:06:30.000Z,97391
2024-03-25T01:07:57.000Z,97388
2024-03-25T01:10:03.000Z,97390
2024-03-25T01:11:30.000Z,97399
2024-03-25T01:13:36.000Z,97395
2024-03-25T01:15:03.000Z,97397
2024-03-25T01:17:09.000Z,97395
2024-03-25T01:19:55.000Z,97397
2024-03-25T01:21:21.000Z,97399
2024-03-25T01:23:27.000Z,97401
2024-03-25T01:24:54.000Z,97401
2024-03-25T01:27:00.000Z,97402
2024-03-25T01:28:26.000Z,97406
2024-03-25T01:30:33.000Z,97401
2024-03-25T01:31:59.000Z,97402
2024-03-25T01:34:05.000Z,97397
2024-03-25T01:35:32.000Z,97397
2024-03-25T01:37:38.000Z,97397
2024-03-25T01:39:05.000Z,97401
2024-03-25T01:41:11.000Z,97405
2024-03-25T01:42:37.000Z,97409
2024-03-25T01:44:43.000Z,97413
2024-03-25T01:46:10.000Z,97413
2024-03-25T01:48:16.000Z,97412
2024-03-25T01:49:43.000Z,97416
2024-03-25T01:51:49.000Z,97411
2024-03-25T01:53:15.000Z,97412
2024-03-25T01:55:22.000Z,97414
2024-03-25T01:58:07.000Z,97416
2024-03-25T01:59:33.000Z,97422
2024-03-25T02:01:40.000Z,97423
2024-03-25T02:03:07.000Z,97430
2024-03-25T02:05:13.000Z,97425
2024-03-25T02:06:39.000Z,97426
2024-03-25T02:08:45.000Z,97429
2024-03-25T02:10:12.000Z,97429
2024-03-25T02:12:18.000Z,97426
2024-03-25T02:13:44.000Z,97426
2024-03-25T02:15:51.000Z,97428
2024-03-25T02:17:18.000Z,97429
2024-03-25T02:19:24.000Z,97426
2024-03-25T02:20:51.000Z,97428
2024-03-25T02:22:57.000Z,97427
2024-03-25T02:24:24.000Z,97425
2024-03-25T02:26:30.000Z,97426
2024-03-25T02:27:56.000Z,97427
2024-03-25T02:30:03.000Z,97428
2024-03-25T02:31:29.000Z,97427
2024-03-25T02:33:36.000Z,97429
2024-03-25T02:36:21.000Z,97434
2024-03-25T02:37:47.000Z,97435
2024-03-25T02:39:53.000Z,97435
2024-03-25T02:41:20.000Z,97435
2024-03-25T02:43:26.000Z,97439
2024-03-25T02:44:53.000Z,97437
2024-03-25T02:46:59.000Z,97429
2024-03-25T02:48:26.000Z,97427
2024-03-25T02:50:32.000Z,97424
2024-03-25T02:51:58.000Z,97427
2024-03-25T02:54:04.000Z,97419
2024-03-25T02:55:31.000Z,97427
2024-03-25T02:57:37.000Z,97430
2024-03-25T02:59:04.000Z,97428
2024-03-25T03:01:10.000Z,97433
2024-03-25T03:02:36.000Z,97432
2024-03-25T03:04:42.000Z,97438
2024-03-25T03:06:09.000Z,97439
2024-03-25T03:08:15.000Z,97438
2024-03-25T03:09:41.000Z,97439
2024-03-25T03:11:47.000Z,97439
2024-03-25T03:14:33.000Z,97450
2024-03-25T03:15:59.000Z,97451
2024-03-25T03:18:05.000Z,97454
2024-03-25T03:19:32.000Z,97454
2024-03-25T03:21:38.000Z,97455
2024-03-25T03:23:04.000Z,97457
2024-03-25T03:25:10.000Z,97459
2024-03-25T03:26:37.000Z,97460
2024-03-25T03:28:43.000Z,97461
2024-03-25T03:30:09.000Z,97462
2024-03-25T03:32:15.000Z,97461
2024-03-25T03:33:42.000Z,97457
2024-03-25T03:35:48.000Z,97455
2024-03-25T03:37:14.000Z,97457
2024-03-25T03:39:21.000Z,97458
2024-03-25T03:40:47.000Z,97458
2024-03-25T03:42:53.000Z,97457
2024-03-25T03:44:20.000Z,97459
2024-03-25T03:46:26.000Z,97464
2024-03-25T03:47:53.000Z,97464
2024-03-25T03:49:59.000Z,97470
2024-03-25T03:52:44.000Z,97469
2024-03-25T03:54:11.000Z,97472
2024-03-25T03:56:17.000Z,97476
2024-03-25T03:57:43.000Z,97476
2024-03-25T03:59:49.000Z,97475
2024-03-25T04:01:16.000Z,97475
2024-03-25T04:03:22.000Z,97480
2024-03-25T04:04:49.000Z,97474
2024-03-25T04:06:55.000Z,97476
2024-03-25T04:08:21.000Z,97475
2024-03-25T04:10:28.000Z,97480
2024-03-25T04:11:54.000Z,97478
2024-03-25T04:14:00.000Z,97481
2024-03-25T04:15:27.000Z,97480
2024-03-25T04:17:33.000Z,97484
2024-03-25T04:18:59.000Z,97482
2024-03-25T04:21:05.000Z,97479
2024-03-25T04:22:32.000Z,97477
2024-03-25T04:24:38.000Z,97478
2024-03-25T04:26:04.000Z,97479
2024-03-25T04:28:11.000Z,97478
2024-03-25T04:30:56.000Z,97481
2024-03-25T04:32:22.000Z,97480
2024-03-25T04:34:28.000Z,97479
2024-03-25T04:35:55.000Z,97480
2024-03-25T04:38:01.000Z,97479
2024-03-25T04:39:27.000Z,97481
2024-03-25T04:41:34.000Z,97485
2024-03-25T04:43:00.000Z,97488
2024-03-25T04:45:08.000Z,97492
2024-03-25T04:46:34.000Z,97489
2024-03-25T04:48:40.000Z,97491
2024-03-25T04:50:07.000Z,97491
2024-03-25T04:52:13.000Z,97495
2024-03-25T04:53:39.000Z,97496
2024-03-25T04:55:46.000Z,97499
2024-03-25T04:57:12.000Z,97503
2024-03-25T04:59:18.000Z,97501
2024-03-25T05:00:45.000Z,97503
2024-03-25T05:02:51.000Z,97503
2024-03-25T05:04:17.000Z,97499
2024-03-25T05:06:24.000Z,97499
2024-03-25T05:09:09.000Z,97505
2024-03-25T05:10:36.000Z,97503
2024-03-25T05:12:42.000Z,97510
2024-03-25T05:14:09.000Z,97510
2024-03-25T05:16:15.000Z,97515
2024-03-25T05:17:41.000Z,97512
2024-03-25T05:19:48.000Z,97513
2024-03-25T05:21:15.000Z,97512
2024-03-25T05:23:21.000Z,97515
2024-03-25T05:24:48.000Z,97518
2024-03-25T05:26:54.000Z,97526
2024-03-25T05:28:21.000Z,97523
2024-03-25T05:30:27.000Z,97526
2024-03-25T05:31:54.000Z,97524
2024-03-25T05:34:00.000Z,97530
2024-03-25T05:35:26.000Z,97528
2024-03-25T05:37:32.000Z,97532
2024-03-25T05:38:59.000Z,97530
2024-03-25T05:41:05.000Z,97532
2024-03-25T05:42:31.000Z,97534
2024-03-25T05:44:38.000Z,97534
2024-03-25T05:47:23.000Z,97537
2024-03-25T05:48:49.000Z,97535
2024-03-25T05:50:55.000Z,97536
2024-03-25T05:52:22.000Z,97532
2024-03-25T05:54:28.000Z,97536
2024-03-25T05:55:54.000Z,97532
2024-03-25T05:58:01.000Z,97531
2024-03-25T05:59:27.000Z,97530
2024-03-25T06:01:33.000Z,97535
2024-03-25T06:03:00.000Z,97530
2024-03-25T06:05:06.000Z,97538
2024-03-25T06:06:32.000Z,97537
2024-03-25T06:08:39.000Z,97541
2024-03-25T06:10:05.000Z,97544
2024-03-25T06:12:11.000Z,97543
2024-03-25T06:13:38.000Z,97544
2024-03-25T06:15:44.000Z,97544
2024-03-25T06:17:10.000Z,97547
2024-03-25T06:19:16.000Z,97549
2024-03-25T06:20:43.000Z,97549
2024-03-25T06:22:49.000Z,97552
2024-03-25T06:25:34.000Z,97556
2024-03-25T06:27:01.000Z,97558
2024-03-25T06:29:07.000Z,97561
2024-03-25T06:30:33.000Z,97562
2024-03-25T06:32:39.000Z,97566
2024-03-25T06:34:06.000Z,97567
2024-03-25T06:36:12.000Z,97567
2024-03-25T06:37:39.000Z,97570
2024-03-25T06:39:45.000Z,97573
2024-03-25T06:41:12.000Z,97576
2024-03-25T06:43:18.000Z,97572
2024-03-25T06:44:44.000Z,97574
2024-03-25T06:46:51.000Z,97576
2024-03-25T06:48:17.000Z,97573
2024-03-25T06:50:23.000Z,97575
2024-03-25T06:51:50.000Z,97575
2024-03-25T06:53:56.000Z,97576
2024-03-25T06:55:23.000Z,97579
2024-03-25T06:57:29.000Z,97579
2024-03-25T06:58:55.000Z,97579
2024-03-25T07:01:01.000Z,97582
2024-03-25T07:03:47.000Z,97583
2024-03-25T07:05:13.000Z,97580
2024-03-25T07:07:19.000Z,97583
2024-03-25T07:08:46.000Z,97585
2024-03-25T07:10:52.000Z,97586
2024-03-25T07:12:18.000Z,97592
2024-03-25T07:14:25.000Z,97592
2024-03-25T07:15:52.000Z,97594
2024-03-25T07:17:59.000Z,97598
2024-03-25T07:19:25.000Z,97595
2024-03-25T07:21:31.000Z,97599
2024-03-25T07:22:58.000Z,97605
2024-03-25T07:25:04.000Z,97602
2024-03-25T07:26:31.000Z,97606
2024-03-25T07:28:38.000Z,97609
2024-03-25T07:30:04.000Z,97612
2024-03-25T07:32:10.000Z,97613
2024-03-25T07:33:37.000Z,97616
2024-03-25T07:35:43.000Z,97615
2024-03-25T07:37:10.000Z,97617
2024-03-25T07:39:16.000Z,97617
2024-03-25T07:42:01.000Z,97614
2024-03-25T07:43:28.000Z,97607
2024-03-25T07:45:34.000Z,97605
2024-03-25T07:47:01.000Z,97608
2024-03-25T07:49:07.000Z,97608
2024-03-25T07:50:33.000Z,97615
2024-03-25T07:52:40.000Z,97619
2024-03-25T07:54:06.000Z,97622
2024-03-25T07:56:13.000Z,97618
2024-03-25T07:57:39.000Z,97620
2024-03-25T07:59:45.000Z,97625
2024-03-25T08:01:12.000Z,97626
2024-03-25T08:03:18.000Z,97628
2024-03-25T08:04:45.000Z,97627
2024-03-25T08:06:51.000Z,97629
2024-03-25T08:08:18.000Z,97630
2024-03-25T08:10:24.000Z,97628
2024-03-25T08:11:51.000Z,97627
2024-03-25T08:13:57.000Z,97628
2024-03-25T08:15:23.000Z,97628
2024-03-25T08:17:29.000Z,97622
2024-03-25T08:20:15.000Z,97621
2024-03-25T08:21:41.000Z,97623
2024-03-25T08:23:47.000Z,97623
2024-03-25T08:25:14.000Z,97616
2024-03-25T08:27:20.000Z,97618
2024-03-25T08:28:46.000Z,97617
2024-03-25T08:30:53.000Z,97619
2024-03-25T08:32:19.000Z,97621
2024-03-25T08:34:26.000Z,97620
2024-03-25T08:35:52.000Z,97622
2024-03-25T08:37:58.000Z,97617
2024-03-25T08:39:25.000Z,97619
2024-03-25T08:41:31.000Z,97624
2024-03-25T08:42:58.000Z,97623
2024-03-25T08:45:04.000Z,97624
2024-03-25T08:46:31.000Z,97623
2024-03-25T08:48:37.000Z,97621
2024-03-25T08:50:03.000Z,97620
2024-03-25T08:52:10.000Z,97623
2024-03-25T08:53:37.000Z,97624
2024-03-25T08:55:43.000Z,97626
2024-03-25T08:58:28.000Z,97623
2024-03-25T08:59:55.000Z,97618
2024-03-25T09:02:01.000Z,97624
2024-03-25T09:03:28.000Z,97624
2024-03-25T09:05:34.000Z,97624
2024-03-25T09:07:01.000Z,97628
2024-03-25T09:09:07.000Z,97626
2024-03-25T09:10:33.000Z,97622
2024-03-25T09:12:39.000Z,97624
2024-03-25T09:14:06.000Z,97624
2024-03-25T09:16:12.000Z,97620
2024-03-25T09:17:38.000Z,97618
2024-03-25T09:19:45.000Z,97618
2024-03-25T09:21:11.000Z,97620
2024-03-25T09:23:18.000Z,97622
2024-03-25T09:24:44.000Z,97618
2024-03-25T09:26:51.000Z,97626
2024-03-25T09:28:17.000Z,97626
2024-03-25T09:30:23.000Z,97622
2024-03-25T09:31:50.000Z,97630
2024-03-25T09:33:57.000Z,97621
2024-03-25T09:36:42.000Z,97617
2024-03-25T09:38:09.000Z,97622
2024-03-25T09:40:15.000Z,97619
2024-03-25T09:41:42.000Z,97618
2024-03-25T09:43:48.000Z,97620
2024-03-25T09:45:15.000Z,97618
2024-03-25T09:47:21.000Z,97615
2024-03-25T09:48:47.000Z,97611
2024-03-25T09:50:54.000Z,97609
2024-03-25T09:52:20.000Z,97608
2024-03-25T09:54:27.000Z,97605
2024-03-25T09:55:53.000Z,97605
2024-03-25T09:58:00.000Z,97604
2024-03-25T09:59:26.000Z,97604
2024-03-25T10:01:33.000Z,97599
2024-03-25T10:02:59.000Z,97601
2024-03-25T10:05:06.000Z,97603
2024-03-25T10:06:32.000Z,97597
2024-03-25T10:08:39.000Z,97595
2024-03-25T10:10:06.000Z,97595
2024-03-25T10:12:12.000Z,97594
2024-03-25T10:14:57.000Z,97597
2024-03-25T10:16:24.000Z,97595
2024-03-25T10:18:30.000Z,97587
2024-03-25T10:19:56.000Z,97591
2024-03-25T10:22:03.000Z,97584
2024-03-25T10:23:30.000Z,97588
2024-03-25T10:25:36.000Z,97589
2024-03-25T10:27:02.000Z,97591
2024-03-25T10:29:08.000Z,97591
2024-03-25T10:30:35.000Z,97593
2024-03-25T10:32:42.000Z,97594
2024-03-25T10:34:08.000Z,97592
2024-03-25T10:36:14.000Z,97589
2024-03-25T10:37:41.000Z,97589
2024-03-25T10:39:47.000Z,97587
2024-03-25T10:41:14.000Z,97589
2024-03-25T10:43:20.000Z,97583
2024-03-25T10:44:46.000Z,97578
2024-03-25T10:46:53.000Z,97575
2024-03-25T10:48:19.000Z,97575
2024-03-25T10:50:26.000Z,97574
2024-03-25T10:53:11.000Z,97571
2024-03-25T10:54:37.000Z,97572
2024-03-25T10:56:44.000Z,97571
2024-03-25T10:58:10.000Z,97562
2024-03-25T11:00:16.000Z,97559
2024-03-25T11:01:43.000Z,97556
2024-03-25T11:03:49.000Z,97558
2024-03-25T11:05:16.000Z,97558
2024-03-25T11:07:22.000Z,97556
2024-03-25T11:08:48.000Z,97553
2024-03-25T11:10:55.000Z,97550
2024-03-25T11:12:22.000Z,97546
2024-03-25T11:14:28.000Z,97543
2024-03-25T11:15:55.000Z,97547
2024-03-25T11:18:01.000Z,97545
2024-03-25T11:19:28.000Z,97547
2024-03-25T11:21:34.000Z,97542
2024-03-25T11:23:00.000Z,97535
2024-03-25T11:25:06.000Z,97534
2024-03-25T11:26:33.000Z,97534
2024-03-25T11:28:39.000Z,97531
2024-03-25T11:31:25.000Z,97529
2024-03-25T11:32:51.000Z,97528
2024-03-25T11:34:57.000Z,97523
2024-03-25T11:36:24.000Z,97521
2024-03-25T11:38:30.000Z,97519
2024-03-25T11:39:57.000Z,97519
2024-03-25T11:42:03.000Z,97520
2024-03-25T11:43:29.000Z,97518
2024-03-25T11:45:35.000Z,97514
2024-03-25T11:47:02.000Z,97510
2024-03-25T11:49:10.000Z,97504
2024-03-25T11:50:36.000Z,97506
2024-03-25T11:52:43.000Z,97507
2024-03-25T11:54:09.000Z,97505
2024-03-25T11:56:15.000Z,97503
2024-03-25T11:57:42.000Z,97499
2024-03-25T11:59:48.000Z,97499
2024-03-25T12:01:14.000Z,97499
2024-03-25T12:03:21.000Z,97495
2024-03-25T12:05:00.000Z,97498
2024-03-25T12:07:06.000Z,97498
2024-03-25T12:09:51.000Z,97494
2024-03-25T12:11:18.000Z,97494
2024-03-25T12:13:24.000Z,97492
2024-03-25T12:14:51.000Z,97493
2024-03-25T12:16:57.000Z,97491
2024-03-25T12:18:23.000Z,97485
2024-03-25T12:20:29.000Z,97479
2024-03-25T12:21:56.000Z,97478
2024-03-25T12:24:04.000Z,97477
2024-03-25T12:25:31.000Z,97475
2024-03-25T12:27:37.000Z,97468
2024-03-25T12:29:04.000Z,97466
2024-03-25T12:31:10.000Z,97464
2024-03-25T12:32:37.000Z,97458
2024-03-25T12:34:43.000Z,97454
2024-03-25T12:36:09.000Z,97454
2024-03-25T12:38:15.000Z,97452
2024-03-25T12:39:42.000Z,97449
2024-03-25T12:41:48.000Z,97445
2024-03-25T12:43:15.000Z,97442
2024-03-25T12:45:26.000Z,97442
2024-03-25T12:48:11.000Z,97438
2024-03-25T12:49:37.000Z,97434
2024-03-25T12:51:44.000Z,97433
2024-03-25T12:53:10.000Z,97431
2024-03-25T12:55:16.000Z,97430
2024-03-25T12:56:43.000Z,97428
2024-03-25T12:58:49.000Z,97427
2024-03-25T13:00:15.000Z,97421
2024-03-25T13:02:21.000Z,97422
2024-03-25T13:03:48.000Z,97421
2024-03-25T13:05:54.000Z,97425
2024-03-25T13:07:21.000Z,97425
2024-03-25T13:09:27.000Z,97420
2024-03-25T13:10:53.000Z,97422
2024-03-25T13:13:00.000Z,97422
2024-03-25T13:14:26.000Z,97427
2024-03-25T13:16:33.000Z,97426
2024-03-25T13:17:59.000Z,97424
2024-03-25T13:20:05.000Z,97419
2024-03-25T13:21:32.000Z,97414
2024-03-25T13:23:38.000Z,97417
2024-03-25T13:26:24.000Z,97411
2024-03-25T13:27:50.000Z,97413
2024-03-25T13:29:56.000Z,97410
2024-03-25T13:31:23.000Z,97411
2024-03-25T13:33:29.000Z,97410
2024-03-25T13:34:56.000Z,97409
2024-03-25T13:37:02.000Z,97410
2024-03-25T13:38:29.000Z,97410
2024-03-25T13:40:35.000Z,97406
2024-03-25T13:42:02.000Z,97407
2024-03-25T13:44:08.000Z,97404
2024-03-25T13:45:35.000Z,97403
2024-03-25T13:47:41.000Z,97397
2024-03-25T13:49:07.000Z,97397
2024-03-25T13:51:13.000Z,97393
2024-03-25T13:52:40.000Z,97393
2024-03-25T13:54:46.000Z,97392
2024-03-25T13:56:13.000Z,97386
2024-03-25T13:58:19.000Z,97384
2024-03-25T13:59:45.000Z,97382
2024-03-25T14:01:52.000Z,97381
2024-03-25T14:04:37.000Z,97376
2024-03-25T14:06:04.000Z,97375
2024-03-25T14:08:10.000Z,97369
2024-03-25T14:09:37.000Z,97365
2024-03-25T14:11:43.000Z,97365
2024-03-25T14:13:09.000Z,97363
2024-03-25T14:15:16.000Z,97357
2024-03-25T14:16:42.000Z,97357
2024-03-25T14:18:49.000Z,97350
2024-03-25T14:20:15.000Z,97345
2024-03-25T14:22:21.000Z,97348
2024-03-25T14:23:48.000Z,97342
2024-03-25T14:25:54.000Z,97338
2024-03-25T14:27:21.000Z,97340
2024-03-25T14:29:27.000Z,97337
2024-03-25T14:30:54.000Z,97335
2024-03-25T14:33:00.000Z,97328
2024-03-25T14:34:26.000Z,97327
2024-03-25T14:36:32.000Z,97322
2024-03-25T14:37:59.000Z,97320
2024-03-25T14:40:05.000Z,97316
2024-03-25T14:42:50.000Z,97315
2024-03-25T14:44:17.000Z,97310
2024-03-25T14:46:23.000Z,97311
2024-03-25T14:47:50.000Z,97303
2024-03-25T14:49:57.000Z,97306
2024-03-25T14:51:23.000Z,97307
2024-03-25T14:53:30.000Z,97305
2024-03-25T14:54:56.000Z,97306
2024-03-25T14:57:02.000Z,97302
2024-03-25T14:58:29.000Z,97296
2024-03-25T15:00:35.000Z,97295
2024-03-25T15:02:01.000Z,97298
2024-03-25T15:04:08.000Z,97300
2024-03-25T15:05:34.000Z,97299
2024-03-25T15:07:40.000Z,97295
2024-03-25T15:09:07.000Z,97289
2024-03-25T15:11:13.000Z,97294
2024-03-25T15:12:39.000Z,97292
2024-03-25T15:14:46.000Z,97287
2024-03-25T15:16:13.000Z,97286
2024-03-25T15:18:19.000Z,97286
2024-03-25T15:21:04.000Z,97288
2024-03-25T15:22:31.000Z,97289
2024-03-25T15:24:37.000Z,97284
2024-03-25T15:26:03.000Z,97280
2024-03-25T15:28:09.000Z,97273
2024-03-25T15:29:36.000Z,97267
2024-03-25T15:31:42.000Z,97260
2024-03-25T15:33:09.000Z,97263
2024-03-25T15:35:15.000Z,97257
2024-03-25T15:36:41.000Z,97258
2024-03-25T15:38:47.000Z,97255
2024-03-25T15:40:14.000Z,97257
2024-03-25T15:42:20.000Z,97257
2024-03-25T15:43:47.000Z,97255
2024-03-25T15:45:53.000Z,97252
2024-03-25T15:47:20.000Z,97253
2024-03-25T15:49:26.000Z,97245
2024-03-25T15:50:52.000Z,97249
2024-03-25T15:52:58.000Z,97239
2024-03-25T15:54:25.000Z,97237
2024-03-25T15:56:31.000Z,97233
2024-03-25T15:59:16.000Z,97224
2024-03-25T16:00:43.000Z,97220
2024-03-25T16:02:49.000Z,97223
2024-03-25T16:04:15.000Z,97218
2024-03-25T16:06:22.000Z,97218
2024-03-25T16:07:48.000Z,97213
2024-03-25T16:09:55.000Z,97213
2024-03-25T16:11:21.000Z,97210
2024-03-25T16:13:27.000Z,97211
2024-03-25T16:14:54.000Z,97210
2024-03-25T16:17:00.000Z,97211
2024-03-25T16:18:27.000Z,97211
2024-03-25T16:20:33.000Z,97206
2024-03-25T16:21:59.000Z,97206
2024-03-25T16:24:06.000Z,97205
2024-03-25T16:25:32.000Z,97198
2024-03-25T16:27:39.000Z,97194
2024-03-25T16:29:05.000Z,97193
2024-03-25T16:31:11.000Z,97186
2024-03-25T16:32:38.000Z,97186
2024-03-25T16:34:44.000Z,97186
2024-03-25T16:37:30.000Z,97180
2024-03-25T16:38:56.000Z,97177
2024-03-25T16:41:03.000Z,97169
2024-03-25T16:42:29.000Z,97171
2024-03-25T16:44:36.000Z,97167
2024-03-25T16:46:02.000Z,97162
2024-03-25T16:48:09.000Z,97160
2024-03-25T16:49:35.000Z,97163
2024-03-25T16:51:41.000Z,97161
2024-03-25T16:53:08.000Z,97157
2024-03-25T16:55:14.000Z,97156
2024-03-25T16:56:41.000Z,97159
2024-03-25T16:58:47.000Z,97158
2024-03-25T17:00:13.000Z,97160
2024-03-25T17:02:20.000Z,97160
2024-03-25T17:03:46.000Z,97161
2024-03-25T17:05:52.000Z,97162
2024-03-25T17:07:31.000Z,97165
2024-03-25T17:09:37.000Z,97168
2024-03-25T17:11:03.000Z,97166
2024-03-25T17:13:09.000Z,97163
2024-03-25T17:15:55.000Z,97160
2024-03-25T17:17:21.000Z,97158
2024-03-25T17:19:28.000Z,97155
2024-03-25T17:20:54.000Z,97154
2024-03-25T17:23:01.000Z,97154
2024-03-25T17:24:27.000Z,97155
2024-03-25T17:26:34.000Z,97158
2024-03-25T17:28:00.000Z,97153
2024-03-25T17:30:06.000Z,97155
2024-03-25T17:31:33.000Z,97154
2024-03-25T17:33:39.000Z,97159
2024-03-25T17:35:05.000Z,97155
2024-03-25T17:37:12.000Z,97155
2024-03-25T17:38:38.000Z,97150
2024-03-25T17:40:44.000Z,97148
2024-03-25T17:42:11.000Z,97148
2024-03-25T17:44:17.000Z,97149
2024-03-25T17:45:44.000Z,97145
2024-03-25T17:47:50.000Z,97148
2024-03-25T17:49:16.000Z,97151
2024-03-25T17:51:23.000Z,97149
2024-03-25T17:54:09.000Z,97154
2024-03-25T17:55:35.000Z,97155
2024-03-25T17:57:42.000Z,97153
2024-03-25T17:59:08.000Z,97157
2024-03-25T18:01:14.000Z,97154
2024-03-25T18:02:41.000Z,97162
2024-03-25T18:04:47.000Z,97159
2024-03-25T18:06:14.000Z,97158
2024-03-25T18:08:20.000Z,97158
2024-03-25T18:09:46.000Z,97159
2024-03-25T18:11:53.000Z,97155
2024-03-25T18:13:19.000Z,97158
2024-03-25T18:15:26.000Z,97157
2024-03-25T18:16:52.000Z,97160
2024-03-25T18:18:58.000Z,97161
2024-03-25T18:20:25.000Z,97165
2024-03-25T18:22:31.000Z,97168
2024-03-25T18:23:58.000Z,97171
2024-03-25T18:26:07.000Z,97168
2024-03-25T18:27:34.000Z,97166
2024-03-25T18:29:40.000Z,97165
2024-03-25T18:32:25.000Z,97163
2024-03-25T18:33:52.000Z,97162
2024-03-25T18:35:58.000Z,97160
2024-03-25T18:37:25.000Z,97156
2024-03-25T18:39:31.000Z,97150
2024-03-25T18:40:58.000Z,97150
2024-03-25T18:43:04.000Z,97150
2024-03-25T18:44:30.000Z,97149
2024-03-25T18:46:37.000Z,97150
2024-03-25T18:48:03.000Z,97151
2024-03-25T18:50:09.000Z,97146
2024-03-25T18:51:36.000Z,97150
2024-03-25T18:53:43.000Z,97147
2024-03-25T18:55:09.000Z,97149
2024-03-25T18:57:15.000Z,97149
2024-03-25T18:58:42.000Z,97149
2024-03-25T19:00:48.000Z,97150
2024-03-25T19:02:14.000Z,97151
2024-03-25T19:04:21.000Z,97149
2024-03-25T19:05:47.000Z,97146
2024-03-25T19:07:54.000Z,97146
2024-03-25T19:10:39.000Z,97146
2024-03-25T19:12:05.000Z,97147
2024-03-25T19:14:12.000Z,97146
2024-03-25T19:15:39.000Z,97144
2024-03-25T19:17:46.000Z,97140
2024-03-25T19:19:12.000Z,97139
2024-03-25T19:21:18.000Z,97135
2024-03-25T19:22:45.000Z,97136
2024-03-25T19:24:51.000Z,97128
2024-03-25T19:26:18.000Z,97134
2024-03-25T19:28:24.000Z,97135
2024-03-25T19:29:51.000Z,97131
2024-03-25T19:31:57.000Z,97132
2024-03-25T19:33:23.000Z,97131
2024-03-25T19:35:30.000Z,97128
2024-03-25T19:36:56.000Z,97128
2024-03-25T19:39:02.000Z,97125
2024-03-25T19:40:29.000Z,97119
2024-03-25T19:42:35.000Z,97118
2024-03-25T19:44:02.000Z,97117
2024-03-25T19:46:09.000Z,97115
2024-03-25T19:48:55.000Z,97113
2024-03-25T19:50:21.000Z,97111
2024-03-25T19:52:27.000Z,97107
2024-03-25T19:53:54.000Z,97104
2024-03-25T19:56:00.000Z,97101
2024-03-25T19:57:26.000Z,97099
2024-03-25T19:59:33.000Z,97097
2024-03-25T20:00:59.000Z,97099
2024-03-25T20:03:05.000Z,97096
2024-03-25T20:04:32.000Z,97097
2024-03-25T20:06:38.000Z,97098
2024-03-25T20:08:04.000Z,97101
2024-03-25T20:10:11.000Z,97101
2024-03-25T20:11:37.000Z,97099
2024-03-25T20:13:44.000Z,97093
2024-03-25T20:15:10.000Z,97091
2024-03-25T20:17:16.000Z,97089
2024-03-25T20:18:43.000Z,97088
2024-03-25T20:20:49.000Z,97090
2024-03-25T20:22:15.000Z,97088
2024-03-25T20:24:21.000Z,97087
2024-03-25T20:27:07.000Z,97086
2024-03-25T20:28:33.000Z,97088
2024-03-25T20:30:41.000Z,97085
2024-03-25T20:32:07.000Z,97086
2024-03-25T20:34:13.000Z,97085
2024-03-25T20:35:40.000Z,97087
2024-03-25T20:37:46.000Z,97086
2024-03-25T20:39:13.000Z,97086
2024-03-25T20:41:19.000Z,97085
2024-03-25T20:42:45.000Z,97087
2024-03-25T20:44:51.000Z,97085
2024-03-25T20:46:18.000Z,97087
2024-03-25T20:48:24.000Z,97083
2024-03-25T20:49:51.000Z,97084
2024-03-25T20:51:58.000Z,97079
2024-03-25T20:53:24.000Z,97079
2024-03-25T20:55:28.000Z,97074
2024-03-25T20:56:57.000Z,97075
2024-03-25T20:59:04.000Z,97070
2024-03-25T21:00:28.000Z,97068
2024-03-25T21:02:32.000Z,97064
2024-03-25T21:05:16.000Z,97060
2024-03-25T21:06:42.000Z,97063
2024-03-25T21:08:48.000Z,97061
2024-03-25T21:10:13.000Z,97063
2024-03-25T21:12:17.000Z,97059
2024-03-25T21:13:43.000Z,97056
2024-03-25T21:15:48.000Z,97048
2024-03-25T21:17:13.000Z,97050
2024-03-25T21:19:19.000Z,97053
2024-03-25T21:20:46.000Z,97050
2024-03-25T21:22:52.000Z,97049
2024-03-25T21:24:17.000Z,97048
2024-03-25T21:26:20.000Z,97046
2024-03-25T21:27:45.000Z,97045
2024-03-25T21:29:49.000Z,97042
2024-03-25T21:31:13.000Z,97040
2024-03-25T21:33:17.000Z,97036
2024-03-25T21:34:41.000Z,97036
2024-03-25T21:36:45.000Z,97039
2024-03-25T21:38:09.000Z,97040
2024-03-25T21:40:13.000Z,97031
2024-03-25T21:42:56.000Z,97033
2024-03-25T21:44:25.000Z,97029
2024-03-25T21:46:28.000Z,97026
2024-03-25T21:47:53.000Z,97029
2024-03-25T21:49:56.000Z,97028
2024-03-25T21:51:21.000Z,97026
2024-03-25T21:53:25.000Z,97026
2024-03-25T21:54:49.000Z,97021
2024-03-25T21:56:53.000Z,97020
2024-03-25T21:58:17.000Z,97021
2024-03-25T22:00:21.000Z,97022
2024-03-25T22:01:45.000Z,97018
2024-03-25T22:03:49.000Z,97016
2024-03-25T22:05:13.000Z,97020
2024-03-25T22:07:17.000Z,97019
2024-03-25T22:08:41.000Z,97019
2024-03-25T22:10:44.000Z,97017
2024-03-25T22:12:09.000Z,97015
2024-03-25T22:14:12.000Z,97013
2024-03-25T22:15:37.000Z,97018
2024-03-25T22:17:40.000Z,97009
2024-03-25T22:20:23.000Z,97011
2024-03-25T22:21:48.000Z,97011
2024-03-25T22:23:52.000Z,97007
2024-03-25T22:25:17.000Z,97007
2024-03-25T22:27:20.000Z,97008
2024-03-25T22:28:45.000Z,97005
2024-03-25T22:30:48.000Z,97003
2024-03-25T22:32:13.000Z,97000
2024-03-25T22:34:16.000Z,97001
2024-03-25T22:35:41.000Z,96997
2024-03-25T22:37:44.000Z,96990
2024-03-25T22:39:08.000Z,96996
2024-03-25T22:41:12.000Z,96990
2024-03-25T22:42:36.000Z,96989
2024-03-25T22:44:40.000Z,96987
2024-03-25T22:46:05.000Z,96985
2024-03-25T22:48:08.000Z,96981
2024-03-25T22:49:32.000Z,96978
2024-03-25T22:51:36.000Z,96980
2024-03-25T22:53:00.000Z,96977
2024-03-25T22:55:04.000Z,96973
2024-03-25T22:57:48.000Z,96969
2024-03-25T22:59:12.000Z,96971
2024-03-25T23:01:15.000Z,96970
2024-03-25T23:02:40.000Z,96967
2024-03-25T23:04:43.000Z,96965
2024-03-25T23:06:08.000Z,96965
2024-03-25T23:08:11.000Z,96963
2024-03-25T23:09:36.000Z,96962
2024-03-25T23:11:40.000Z,96961
2024-03-25T23:13:04.000Z,96960
2024-03-25T23:15:08.000Z,96952
2024-03-25T23:16:33.000Z,96954
2024-03-25T23:18:36.000Z,96952
2024-03-25T23:20:01.000Z,96951
2024-03-25T23:22:04.000Z,96953
2024-03-25T23:23:29.000Z,96953